sensor_id;sensor_type;location;lat;lon;timestamp;temperature;humidity
21244;DHT22;10780;50.942;4.028;2023-02-18T00:01:15;11.80;99.90
21244;DHT22;10780;50.942;4.028;2023-02-18T00:03:41;11.80;99.90
21244;DHT22;10780;50.942;4.028;2023-02-18T00:06:12;11.80;99.90
21244;DHT22;10780;50.942;4.028;2023-02-18T00:08:40;11.90;99.90
21244;DHT22;10780;50.942;4.028;2023-02-18T00:11:06;11.80;99.90
21244;DHT22;10780;50.942;4.028;2023-02-18T00:13:32;11.80;99.90
21244;DHT22;10780;50.942;4.028;2023-02-18T00:16:09;11.90;99.90
21244;DHT22;10780;50.942;4.028;2023-02-18T00:18:36;11.80;99.90
21244;DHT22;10780;50.942;4.028;2023-02-18T00:21:04;11.70;99.90
21244;DHT22;10780;50.942;4.028;2023-02-18T00:23:30;11.70;99.90
21244;DHT22;10780;50.942;4.028;2023-02-18T00:26:07;11.70;99.90
21244;DHT22;10780;50.942;4.028;2023-02-18T00:28:34;11.70;99.90
21244;DHT22;10780;50.942;4.028;2023-02-18T00:31:06;11.60;99.90
21244;DHT22;10780;50.942;4.028;2023-02-18T00:33:31;11.60;99.90
21244;DHT22;10780;50.942;4.028;2023-02-18T00:36:02;11.60;99.90
21244;DHT22;10780;50.942;4.028;2023-02-18T00:38:28;11.60;99.90
21244;DHT22;10780;50.942;4.028;2023-02-18T00:40:54;11.50;99.90
21244;DHT22;10780;50.942;4.028;2023-02-18T00:43:19;11.50;99.90
21244;DHT22;10780;50.942;4.028;2023-02-18T00:45:45;11.60;99.90
21244;DHT22;10780;50.942;4.028;2023-02-18T00:48:11;11.60;99.90
21244;DHT22;10780;50.942;4.028;2023-02-18T00:50:36;11.50;99.90
21244;DHT22;10780;50.942;4.028;2023-02-18T00:53:02;11.50;99.90
21244;DHT22;10780;50.942;4.028;2023-02-18T00:55:27;11.50;99.90
21244;DHT22;10780;50.942;4.028;2023-02-18T00:57:53;11.50;99.90
21244;DHT22;10780;50.942;4.028;2023-02-18T01:00:19;11.50;99.90
21244;DHT22;10780;50.942;4.028;2023-02-18T01:02:44;11.50;99.90
21244;DHT22;10780;50.942;4.028;2023-02-18T01:05:10;11.60;99.90
21244;DHT22;10780;50.942;4.028;2023-02-18T01:07:36;11.60;99.90
21244;DHT22;10780;50.942;4.028;2023-02-18T01:10:02;11.50;99.90
21244;DHT22;10780;50.942;4.028;2023-02-18T01:12:28;11.50;99.90
21244;DHT22;10780;50.942;4.028;2023-02-18T01:14:53;11.50;99.90
21244;DHT22;10780;50.942;4.028;2023-02-18T01:17:19;11.50;99.90
21244;DHT22;10780;50.942;4.028;2023-02-18T01:19:45;11.50;99.90
21244;DHT22;10780;50.942;4.028;2023-02-18T01:22:10;11.50;99.90
21244;DHT22;10780;50.942;4.028;2023-02-18T01:24:36;11.50;99.90
21244;DHT22;10780;50.942;4.028;2023-02-18T01:27:03;11.50;99.90
21244;DHT22;10780;50.942;4.028;2023-02-18T01:29:28;11.50;99.90
21244;DHT22;10780;50.942;4.028;2023-02-18T01:31:54;11.40;99.90
21244;DHT22;10780;50.942;4.028;2023-02-18T01:34:20;11.40;99.90
21244;DHT22;10780;50.942;4.028;2023-02-18T01:36:45;11.50;99.90
21244;DHT22;10780;50.942;4.028;2023-02-18T01:39:11;11.40;99.90
21244;DHT22;10780;50.942;4.028;2023-02-18T01:41:37;11.50;99.90
21244;DHT22;10780;50.942;4.028;2023-02-18T01:46:38;11.30;99.90
21244;DHT22;10780;50.942;4.028;2023-02-18T01:49:04;11.40;99.90
21244;DHT22;10780;50.942;4.028;2023-02-18T01:51:35;11.40;99.90
21244;DHT22;10780;50.942;4.028;2023-02-18T01:54:05;11.40;99.90
21244;DHT22;10780;50.942;4.028;2023-02-18T01:57:21;11.40;99.90
21244;DHT22;10780;50.942;4.028;2023-02-18T01:59:25;11.30;99.90
21244;DHT22;10780;50.942;4.028;2023-02-18T02:01:51;11.30;99.90
21244;DHT22;10780;50.942;4.028;2023-02-18T02:04:17;11.30;99.90
21244;DHT22;10780;50.942;4.028;2023-02-18T02:06:43;11.30;99.90
21244;DHT22;10780;50.942;4.028;2023-02-18T02:09:12;11.20;99.90
21244;DHT22;10780;50.942;4.028;2023-02-18T02:11:50;11.20;99.90
21244;DHT22;10780;50.942;4.028;2023-02-18T02:17:06;11.20;99.90
21244;DHT22;10780;50.942;4.028;2023-02-18T02:19:53;11.20;99.90
21244;DHT22;10780;50.942;4.028;2023-02-18T02:25:18;11.20;99.90
21244;DHT22;10780;50.942;4.028;2023-02-18T02:33:08;11.20;99.90
21244;DHT22;10780;50.942;4.028;2023-02-18T02:38:20;11.20;99.90
21244;DHT22;10780;50.942;4.028;2023-02-18T02:51:53;11.20;99.90
21244;DHT22;10780;50.942;4.028;2023-02-18T02:54:25;11.10;99.90
21244;DHT22;10780;50.942;4.028;2023-02-18T02:59:41;11.10;99.90
21244;DHT22;10780;50.942;4.028;2023-02-18T03:07:36;11.00;99.90
21244;DHT22;10780;50.942;4.028;2023-02-18T03:18:59;10.90;99.90
21244;DHT22;10780;50.942;4.028;2023-02-18T03:21:30;11.00;99.90
21244;DHT22;10780;50.942;4.028;2023-02-18T03:26:30;10.90;99.90
21244;DHT22;10780;50.942;4.028;2023-02-18T03:29:00;10.90;99.90
21244;DHT22;10780;50.942;4.028;2023-02-18T03:31:28;10.90;99.90
21244;DHT22;10780;50.942;4.028;2023-02-18T03:33:58;10.90;99.90
21244;DHT22;10780;50.942;4.028;2023-02-18T03:36:26;10.90;99.90
21244;DHT22;10780;50.942;4.028;2023-02-18T03:39:02;10.90;99.90
21244;DHT22;10780;50.942;4.028;2023-02-18T03:41:28;10.80;99.90
21244;DHT22;10780;50.942;4.028;2023-02-18T03:43:59;10.90;99.90
21244;DHT22;10780;50.942;4.028;2023-02-18T03:46:26;10.90;99.90
21244;DHT22;10780;50.942;4.028;2023-02-18T03:48:52;10.80;99.90
21244;DHT22;10780;50.942;4.028;2023-02-18T03:51:18;10.90;99.90
21244;DHT22;10780;50.942;4.028;2023-02-18T03:53:45;10.90;99.90
21244;DHT22;10780;50.942;4.028;2023-02-18T03:56:10;10.80;99.90
21244;DHT22;10780;50.942;4.028;2023-02-18T03:58:36;10.80;99.90
21244;DHT22;10780;50.942;4.028;2023-02-18T04:01:03;10.90;99.90
21244;DHT22;10780;50.942;4.028;2023-02-18T04:03:28;10.90;99.90
21244;DHT22;10780;50.942;4.028;2023-02-18T04:05:54;10.90;99.90
21244;DHT22;10780;50.942;4.028;2023-02-18T04:08:19;10.90;99.90
21244;DHT22;10780;50.942;4.028;2023-02-18T04:10:45;10.90;99.90
21244;DHT22;10780;50.942;4.028;2023-02-18T04:13:11;10.90;99.90
21244;DHT22;10780;50.942;4.028;2023-02-18T04:15:37;10.90;99.90
21244;DHT22;10780;50.942;4.028;2023-02-18T04:18:03;10.90;99.90
21244;DHT22;10780;50.942;4.028;2023-02-18T04:20:29;10.90;99.90
21244;DHT22;10780;50.942;4.028;2023-02-18T04:22:54;10.90;99.90
21244;DHT22;10780;50.942;4.028;2023-02-18T04:25:20;10.90;99.90
21244;DHT22;10780;50.942;4.028;2023-02-18T04:27:46;10.90;99.90
21244;DHT22;10780;50.942;4.028;2023-02-18T04:30:12;10.90;99.90
21244;DHT22;10780;50.942;4.028;2023-02-18T04:32:38;10.90;99.90
21244;DHT22;10780;50.942;4.028;2023-02-18T04:35:04;10.90;99.90
21244;DHT22;10780;50.942;4.028;2023-02-18T04:37:30;10.90;99.90
21244;DHT22;10780;50.942;4.028;2023-02-18T04:39:55;10.90;99.90
21244;DHT22;10780;50.942;4.028;2023-02-18T04:42:21;11.00;99.90
21244;DHT22;10780;50.942;4.028;2023-02-18T04:44:47;10.90;99.90
21244;DHT22;10780;50.942;4.028;2023-02-18T04:47:13;10.90;99.90
21244;DHT22;10780;50.942;4.028;2023-02-18T04:49:39;10.90;99.90
21244;DHT22;10780;50.942;4.028;2023-02-18T04:52:05;10.90;99.90
21244;DHT22;10780;50.942;4.028;2023-02-18T04:54:30;10.80;99.90
21244;DHT22;10780;50.942;4.028;2023-02-18T04:56:56;10.80;99.90
21244;DHT22;10780;50.942;4.028;2023-02-18T04:59:22;10.80;99.90
21244;DHT22;10780;50.942;4.028;2023-02-18T05:01:47;10.70;99.90
21244;DHT22;10780;50.942;4.028;2023-02-18T05:04:13;10.80;99.90
21244;DHT22;10780;50.942;4.028;2023-02-18T05:06:39;10.70;99.90
21244;DHT22;10780;50.942;4.028;2023-02-18T05:09:05;10.70;99.90
21244;DHT22;10780;50.942;4.028;2023-02-18T05:11:31;10.70;99.90
21244;DHT22;10780;50.942;4.028;2023-02-18T05:13:56;10.60;99.90
21244;DHT22;10780;50.942;4.028;2023-02-18T05:16:22;10.60;99.90
21244;DHT22;10780;50.942;4.028;2023-02-18T05:18:48;10.60;99.90
21244;DHT22;10780;50.942;4.028;2023-02-18T05:21:13;10.60;99.90
21244;DHT22;10780;50.942;4.028;2023-02-18T05:23:39;10.60;99.90
21244;DHT22;10780;50.942;4.028;2023-02-18T05:26:04;10.60;99.90
21244;DHT22;10780;50.942;4.028;2023-02-18T05:28:30;10.60;99.90
21244;DHT22;10780;50.942;4.028;2023-02-18T05:30:56;10.60;99.90
21244;DHT22;10780;50.942;4.028;2023-02-18T05:33:22;10.60;99.90
21244;DHT22;10780;50.942;4.028;2023-02-18T05:35:48;10.60;99.90
21244;DHT22;10780;50.942;4.028;2023-02-18T05:38:14;10.60;99.90
21244;DHT22;10780;50.942;4.028;2023-02-18T05:40:40;10.60;99.90
21244;DHT22;10780;50.942;4.028;2023-02-18T05:43:05;10.60;99.90
21244;DHT22;10780;50.942;4.028;2023-02-18T05:45:31;10.70;99.90
21244;DHT22;10780;50.942;4.028;2023-02-18T05:47:57;10.70;99.90
21244;DHT22;10780;50.942;4.028;2023-02-18T05:50:22;10.70;99.90
21244;DHT22;10780;50.942;4.028;2023-02-18T05:52:48;10.80;99.90
21244;DHT22;10780;50.942;4.028;2023-02-18T05:55:13;10.80;99.90
21244;DHT22;10780;50.942;4.028;2023-02-18T05:57:39;10.80;99.90
21244;DHT22;10780;50.942;4.028;2023-02-18T06:00:06;10.80;99.90
21244;DHT22;10780;50.942;4.028;2023-02-18T06:02:34;10.80;99.90
21244;DHT22;10780;50.942;4.028;2023-02-18T06:04:59;10.80;99.90
21244;DHT22;10780;50.942;4.028;2023-02-18T06:07:25;10.80;99.90
21244;DHT22;10780;50.942;4.028;2023-02-18T06:09:51;10.80;99.90
21244;DHT22;10780;50.942;4.028;2023-02-18T06:12:16;10.80;99.90
21244;DHT22;10780;50.942;4.028;2023-02-18T06:14:42;10.80;99.90
21244;DHT22;10780;50.942;4.028;2023-02-18T06:17:11;10.80;99.90
21244;DHT22;10780;50.942;4.028;2023-02-18T06:19:37;10.80;99.90
21244;DHT22;10780;50.942;4.028;2023-02-18T06:22:03;10.80;99.90
21244;DHT22;10780;50.942;4.028;2023-02-18T06:24:29;10.70;99.90
21244;DHT22;10780;50.942;4.028;2023-02-18T06:26:55;10.70;99.90
21244;DHT22;10780;50.942;4.028;2023-02-18T06:29:20;10.80;99.90
21244;DHT22;10780;50.942;4.028;2023-02-18T06:31:46;10.70;99.90
21244;DHT22;10780;50.942;4.028;2023-02-18T06:34:12;10.70;99.90
21244;DHT22;10780;50.942;4.028;2023-02-18T06:36:37;10.80;99.90
21244;DHT22;10780;50.942;4.028;2023-02-18T06:39:04;10.70;99.90
21244;DHT22;10780;50.942;4.028;2023-02-18T06:41:30;10.70;99.90
21244;DHT22;10780;50.942;4.028;2023-02-18T06:43:56;10.80;99.90
21244;DHT22;10780;50.942;4.028;2023-02-18T06:46:21;10.70;99.90
21244;DHT22;10780;50.942;4.028;2023-02-18T06:48:47;10.70;99.90
21244;DHT22;10780;50.942;4.028;2023-02-18T06:51:13;10.80;99.90
21244;DHT22;10780;50.942;4.028;2023-02-18T06:53:41;10.70;99.90
21244;DHT22;10780;50.942;4.028;2023-02-18T06:56:06;10.80;99.90
21244;DHT22;10780;50.942;4.028;2023-02-18T06:58:32;10.80;99.90
21244;DHT22;10780;50.942;4.028;2023-02-18T07:00:58;10.80;99.90
21244;DHT22;10780;50.942;4.028;2023-02-18T07:03:23;10.80;99.90
21244;DHT22;10780;50.942;4.028;2023-02-18T07:05:49;10.90;99.90
21244;DHT22;10780;50.942;4.028;2023-02-18T07:08:15;10.80;99.90
21244;DHT22;10780;50.942;4.028;2023-02-18T07:10:41;10.90;99.90
21244;DHT22;10780;50.942;4.028;2023-02-18T07:13:06;10.90;99.90
21244;DHT22;10780;50.942;4.028;2023-02-18T07:15:32;10.80;99.90
21244;DHT22;10780;50.942;4.028;2023-02-18T07:17:58;10.90;99.90
21244;DHT22;10780;50.942;4.028;2023-02-18T07:20:24;10.90;99.90
21244;DHT22;10780;50.942;4.028;2023-02-18T07:22:50;10.90;99.90
21244;DHT22;10780;50.942;4.028;2023-02-18T07:25:16;10.90;99.90
21244;DHT22;10780;50.942;4.028;2023-02-18T07:27:42;10.90;99.90
21244;DHT22;10780;50.942;4.028;2023-02-18T07:30:08;10.90;99.90
21244;DHT22;10780;50.942;4.028;2023-02-18T07:32:34;10.90;99.90
21244;DHT22;10780;50.942;4.028;2023-02-18T07:35:00;11.00;99.90
21244;DHT22;10780;50.942;4.028;2023-02-18T07:37:25;10.90;99.90
21244;DHT22;10780;50.942;4.028;2023-02-18T07:39:51;10.90;99.90
21244;DHT22;10780;50.942;4.028;2023-02-18T07:42:16;11.00;99.90
21244;DHT22;10780;50.942;4.028;2023-02-18T07:44:42;10.90;99.90
21244;DHT22;10780;50.942;4.028;2023-02-18T07:47:12;11.00;99.90
21244;DHT22;10780;50.942;4.028;2023-02-18T07:49:38;11.00;99.90
21244;DHT22;10780;50.942;4.028;2023-02-18T07:52:03;11.00;99.90
21244;DHT22;10780;50.942;4.028;2023-02-18T07:54:29;11.00;99.90
21244;DHT22;10780;50.942;4.028;2023-02-18T07:56:55;11.00;99.90
21244;DHT22;10780;50.942;4.028;2023-02-18T07:59:20;11.00;99.90
21244;DHT22;10780;50.942;4.028;2023-02-18T08:01:46;11.00;99.90
21244;DHT22;10780;50.942;4.028;2023-02-18T08:04:11;11.00;99.90
21244;DHT22;10780;50.942;4.028;2023-02-18T08:06:43;11.00;99.90
21244;DHT22;10780;50.942;4.028;2023-02-18T08:09:10;11.00;99.90
21244;DHT22;10780;50.942;4.028;2023-02-18T08:11:36;11.10;99.90
21244;DHT22;10780;50.942;4.028;2023-02-18T08:14:01;11.20;99.90
21244;DHT22;10780;50.942;4.028;2023-02-18T08:16:27;11.20;99.90
21244;DHT22;10780;50.942;4.028;2023-02-18T08:18:53;11.20;99.90
21244;DHT22;10780;50.942;4.028;2023-02-18T08:21:21;11.20;99.90
21244;DHT22;10780;50.942;4.028;2023-02-18T08:23:47;11.20;99.90
21244;DHT22;10780;50.942;4.028;2023-02-18T08:26:14;11.20;99.90
21244;DHT22;10780;50.942;4.028;2023-02-18T08:28:40;11.30;99.90
21244;DHT22;10780;50.942;4.028;2023-02-18T08:31:06;11.30;99.90
21244;DHT22;10780;50.942;4.028;2023-02-18T08:33:32;11.40;99.90
21244;DHT22;10780;50.942;4.028;2023-02-18T08:35:58;11.40;99.90
21244;DHT22;10780;50.942;4.028;2023-02-18T08:38:24;11.40;99.90
21244;DHT22;10780;50.942;4.028;2023-02-18T08:40:50;11.40;99.90
21244;DHT22;10780;50.942;4.028;2023-02-18T08:43:17;11.40;99.90
21244;DHT22;10780;50.942;4.028;2023-02-18T08:45:43;11.30;99.90
21244;DHT22;10780;50.942;4.028;2023-02-18T08:48:10;11.30;99.90
21244;DHT22;10780;50.942;4.028;2023-02-18T08:50:37;11.50;99.90
21244;DHT22;10780;50.942;4.028;2023-02-18T08:53:03;11.60;99.90
21244;DHT22;10780;50.942;4.028;2023-02-18T08:55:30;11.80;99.90
21244;DHT22;10780;50.942;4.028;2023-02-18T08:57:55;11.70;99.90
21244;DHT22;10780;50.942;4.028;2023-02-18T09:00:21;11.70;99.90
21244;DHT22;10780;50.942;4.028;2023-02-18T09:02:47;11.60;99.90
21244;DHT22;10780;50.942;4.028;2023-02-18T09:05:13;11.60;99.90
21244;DHT22;10780;50.942;4.028;2023-02-18T09:07:39;11.60;99.90
21244;DHT22;10780;50.942;4.028;2023-02-18T09:10:06;11.60;99.90
21244;DHT22;10780;50.942;4.028;2023-02-18T09:12:32;11.60;99.90
21244;DHT22;10780;50.942;4.028;2023-02-18T09:14:58;11.60;99.90
21244;DHT22;10780;50.942;4.028;2023-02-18T09:17:25;11.70;99.90
21244;DHT22;10780;50.942;4.028;2023-02-18T09:19:51;11.80;99.90
21244;DHT22;10780;50.942;4.028;2023-02-18T09:22:17;11.70;99.90
21244;DHT22;10780;50.942;4.028;2023-02-18T09:24:42;11.80;99.90
21244;DHT22;10780;50.942;4.028;2023-02-18T09:27:08;11.90;99.90
21244;DHT22;10780;50.942;4.028;2023-02-18T09:29:37;11.90;99.90
21244;DHT22;10780;50.942;4.028;2023-02-18T09:32:04;12.00;99.90
21244;DHT22;10780;50.942;4.028;2023-02-18T09:34:30;12.10;99.90
21244;DHT22;10780;50.942;4.028;2023-02-18T09:36:55;12.10;99.90
21244;DHT22;10780;50.942;4.028;2023-02-18T09:39:21;12.20;99.90
21244;DHT22;10780;50.942;4.028;2023-02-18T09:42:09;12.30;99.90
21244;DHT22;10780;50.942;4.028;2023-02-18T09:49:56;12.20;99.90
21244;DHT22;10780;50.942;4.028;2023-02-18T09:52:31;12.20;99.90
21244;DHT22;10780;50.942;4.028;2023-02-18T09:54:57;12.40;99.90
21244;DHT22;10780;50.942;4.028;2023-02-18T09:57:29;12.40;99.90
21244;DHT22;10780;50.942;4.028;2023-02-18T10:00:03;12.30;99.90
21244;DHT22;10780;50.942;4.028;2023-02-18T10:02:30;12.20;99.90
21244;DHT22;10780;50.942;4.028;2023-02-18T10:04:56;12.20;99.90
21244;DHT22;10780;50.942;4.028;2023-02-18T10:07:28;12.20;99.90
21244;DHT22;10780;50.942;4.028;2023-02-18T10:09:56;12.30;99.90
21244;DHT22;10780;50.942;4.028;2023-02-18T10:12:25;12.20;99.90
21244;DHT22;10780;50.942;4.028;2023-02-18T10:14:54;12.20;99.90
21244;DHT22;10780;50.942;4.028;2023-02-18T10:17:22;12.20;99.90
21244;DHT22;10780;50.942;4.028;2023-02-18T10:19:49;12.20;99.90
21244;DHT22;10780;50.942;4.028;2023-02-18T10:22:16;12.20;99.90
21244;DHT22;10780;50.942;4.028;2023-02-18T10:24:50;12.30;99.90
21244;DHT22;10780;50.942;4.028;2023-02-18T10:27:34;12.20;99.90
21244;DHT22;10780;50.942;4.028;2023-02-18T10:32:46;12.20;99.90
21244;DHT22;10780;50.942;4.028;2023-02-18T10:35:23;12.30;99.90
21244;DHT22;10780;50.942;4.028;2023-02-18T10:38:13;12.30;99.90
21244;DHT22;10780;50.942;4.028;2023-02-18T10:40:48;12.20;99.90
21244;DHT22;10780;50.942;4.028;2023-02-18T10:51:50;12.30;99.90
21244;DHT22;10780;50.942;4.028;2023-02-18T10:54:17;12.20;99.90
21244;DHT22;10780;50.942;4.028;2023-02-18T10:56:49;12.20;99.90
21244;DHT22;10780;50.942;4.028;2023-02-18T10:59:26;12.30;99.90
21244;DHT22;10780;50.942;4.028;2023-02-18T11:02:16;12.30;99.90
21244;DHT22;10780;50.942;4.028;2023-02-18T11:04:44;12.40;99.90
21244;DHT22;10780;50.942;4.028;2023-02-18T11:07:15;12.30;99.90
21244;DHT22;10780;50.942;4.028;2023-02-18T11:09:52;12.30;99.90
21244;DHT22;10780;50.942;4.028;2023-02-18T11:14:46;12.40;99.90
21244;DHT22;10780;50.942;4.028;2023-02-18T11:17:26;12.40;99.90
21244;DHT22;10780;50.942;4.028;2023-02-18T11:19:57;12.40;99.90
21244;DHT22;10780;50.942;4.028;2023-02-18T11:22:31;12.50;99.90
21244;DHT22;10780;50.942;4.028;2023-02-18T11:25:22;12.60;99.90
21244;DHT22;10780;50.942;4.028;2023-02-18T11:27:51;12.60;99.90
21244;DHT22;10780;50.942;4.028;2023-02-18T11:33:09;12.70;99.90
21244;DHT22;10780;50.942;4.028;2023-02-18T11:35:38;12.80;99.90
21244;DHT22;10780;50.942;4.028;2023-02-18T11:38:23;12.80;99.90
21244;DHT22;10780;50.942;4.028;2023-02-18T11:41:02;12.80;99.90
21244;DHT22;10780;50.942;4.028;2023-02-18T11:43:33;13.00;99.90
21244;DHT22;10780;50.942;4.028;2023-02-18T11:46:13;13.00;99.90
21244;DHT22;10780;50.942;4.028;2023-02-18T11:48:39;13.00;99.90
21244;DHT22;10780;50.942;4.028;2023-02-18T11:51:07;12.90;99.90
21244;DHT22;10780;50.942;4.028;2023-02-18T11:53:49;12.90;99.90
21244;DHT22;10780;50.942;4.028;2023-02-18T11:56:18;13.00;99.90
21244;DHT22;10780;50.942;4.028;2023-02-18T11:58:46;12.90;99.90
21244;DHT22;10780;50.942;4.028;2023-02-18T12:02:04;13.00;99.90
21244;DHT22;10780;50.942;4.028;2023-02-18T12:04:17;13.00;99.90
21244;DHT22;10780;50.942;4.028;2023-02-18T12:09:34;13.10;99.90
21244;DHT22;10780;50.942;4.028;2023-02-18T12:12:05;13.00;99.90
21244;DHT22;10780;50.942;4.028;2023-02-18T12:14:35;13.00;99.90
21244;DHT22;10780;50.942;4.028;2023-02-18T12:17:29;12.90;99.90
21244;DHT22;10780;50.942;4.028;2023-02-18T12:23:24;12.80;99.90
21244;DHT22;10780;50.942;4.028;2023-02-18T12:26:38;12.90;99.90
21244;DHT22;10780;50.942;4.028;2023-02-18T12:28:57;12.90;99.90
21244;DHT22;10780;50.942;4.028;2023-02-18T12:31:49;12.90;99.90
21244;DHT22;10780;50.942;4.028;2023-02-18T12:40:56;12.70;99.90
21244;DHT22;10780;50.942;4.028;2023-02-18T12:52:46;12.40;99.90
21244;DHT22;10780;50.942;4.028;2023-02-18T12:55:20;12.30;99.90
21244;DHT22;10780;50.942;4.028;2023-02-18T12:58:39;12.30;99.90
21244;DHT22;10780;50.942;4.028;2023-02-18T13:15:21;12.20;99.90
21244;DHT22;10780;50.942;4.028;2023-02-18T13:17:49;12.10;99.90
21244;DHT22;10780;50.942;4.028;2023-02-18T13:20:35;12.00;99.90
21244;DHT22;10780;50.942;4.028;2023-02-18T13:23:02;11.90;99.90
21244;DHT22;10780;50.942;4.028;2023-02-18T13:25:36;11.80;99.90
21244;DHT22;10780;50.942;4.028;2023-02-18T13:28:06;11.80;99.90
21244;DHT22;10780;50.942;4.028;2023-02-18T13:33:37;11.80;99.90
21244;DHT22;10780;50.942;4.028;2023-02-18T13:39:04;12.00;99.90
21244;DHT22;10780;50.942;4.028;2023-02-18T13:41:39;12.10;99.90
21244;DHT22;10780;50.942;4.028;2023-02-18T13:46:55;12.10;99.90
21244;DHT22;10780;50.942;4.028;2023-02-18T13:49:32;12.20;99.90
21244;DHT22;10780;50.942;4.028;2023-02-18T13:52:00;12.30;99.90
21244;DHT22;10780;50.942;4.028;2023-02-18T13:54:44;12.20;99.90
21244;DHT22;10780;50.942;4.028;2023-02-18T13:57:19;12.30;99.90
21244;DHT22;10780;50.942;4.028;2023-02-18T13:59:50;12.30;99.90
21244;DHT22;10780;50.942;4.028;2023-02-18T14:20:28;12.00;99.90
21244;DHT22;10780;50.942;4.028;2023-02-18T14:22:56;12.10;99.90
21244;DHT22;10780;50.942;4.028;2023-02-18T14:25:30;12.10;99.90
21244;DHT22;10780;50.942;4.028;2023-02-18T14:28:33;12.00;99.90
21244;DHT22;10780;50.942;4.028;2023-02-18T14:30:49;11.90;99.90
21244;DHT22;10780;50.942;4.028;2023-02-18T14:33:18;12.00;99.90
21244;DHT22;10780;50.942;4.028;2023-02-18T14:41:01;12.00;99.90
21244;DHT22;10780;50.942;4.028;2023-02-18T14:46:20;12.00;99.90
21244;DHT22;10780;50.942;4.028;2023-02-18T14:49:08;12.00;99.90
21244;DHT22;10780;50.942;4.028;2023-02-18T14:51:35;12.00;99.90
21244;DHT22;10780;50.942;4.028;2023-02-18T14:54:05;12.20;99.90
21244;DHT22;10780;50.942;4.028;2023-02-18T14:56:36;12.10;99.90
21244;DHT22;10780;50.942;4.028;2023-02-18T14:59:03;12.20;99.90
21244;DHT22;10780;50.942;4.028;2023-02-18T15:01:35;12.10;99.90
21244;DHT22;10780;50.942;4.028;2023-02-18T15:04:02;12.10;99.90
21244;DHT22;10780;50.942;4.028;2023-02-18T15:09:01;12.10;99.90
21244;DHT22;10780;50.942;4.028;2023-02-18T15:11:40;12.10;99.90
21244;DHT22;10780;50.942;4.028;2023-02-18T15:14:16;12.00;99.90
21244;DHT22;10780;50.942;4.028;2023-02-18T15:16:43;12.10;99.90
21244;DHT22;10780;50.942;4.028;2023-02-18T15:19:18;12.10;99.90
21244;DHT22;10780;50.942;4.028;2023-02-18T15:21:47;12.00;99.90
21244;DHT22;10780;50.942;4.028;2023-02-18T15:24:31;12.10;99.90
21244;DHT22;10780;50.942;4.028;2023-02-18T15:27:12;12.10;99.90
21244;DHT22;10780;50.942;4.028;2023-02-18T15:29:38;12.10;99.90
21244;DHT22;10780;50.942;4.028;2023-02-18T15:32:19;12.10;99.90
21244;DHT22;10780;50.942;4.028;2023-02-18T15:34:49;12.10;99.90
21244;DHT22;10780;50.942;4.028;2023-02-18T15:37:15;12.10;99.90
21244;DHT22;10780;50.942;4.028;2023-02-18T15:39:42;12.10;99.90
21244;DHT22;10780;50.942;4.028;2023-02-18T15:42:22;12.20;99.90
21244;DHT22;10780;50.942;4.028;2023-02-18T15:44:54;12.10;99.90
21244;DHT22;10780;50.942;4.028;2023-02-18T15:47:20;12.20;99.90
21244;DHT22;10780;50.942;4.028;2023-02-18T15:49:51;12.20;99.90
21244;DHT22;10780;50.942;4.028;2023-02-18T15:52:27;12.20;99.90
21244;DHT22;10780;50.942;4.028;2023-02-18T15:54:55;12.20;99.90
21244;DHT22;10780;50.942;4.028;2023-02-18T15:57:27;12.00;99.90
21244;DHT22;10780;50.942;4.028;2023-02-18T16:00:05;12.00;99.90
21244;DHT22;10780;50.942;4.028;2023-02-18T16:02:56;12.00;99.90
21244;DHT22;10780;50.942;4.028;2023-02-18T16:05:27;11.90;99.90
21244;DHT22;10780;50.942;4.028;2023-02-18T16:08:22;11.90;99.90
21244;DHT22;10780;50.942;4.028;2023-02-18T16:13:18;11.80;99.90
21244;DHT22;10780;50.942;4.028;2023-02-18T16:15:46;11.90;99.90
21244;DHT22;10780;50.942;4.028;2023-02-18T16:20:59;11.80;99.90
21244;DHT22;10780;50.942;4.028;2023-02-18T16:23:42;11.80;99.90
21244;DHT22;10780;50.942;4.028;2023-02-18T16:26:11;11.80;99.90
21244;DHT22;10780;50.942;4.028;2023-02-18T16:28:41;11.80;99.90
21244;DHT22;10780;50.942;4.028;2023-02-18T16:31:07;11.80;99.90
21244;DHT22;10780;50.942;4.028;2023-02-18T16:33:32;11.70;99.90
21244;DHT22;10780;50.942;4.028;2023-02-18T16:35:58;11.70;99.90
21244;DHT22;10780;50.942;4.028;2023-02-18T16:38:24;11.70;99.90
21244;DHT22;10780;50.942;4.028;2023-02-18T16:40:51;11.70;99.90
21244;DHT22;10780;50.942;4.028;2023-02-18T16:43:23;11.70;99.90
21244;DHT22;10780;50.942;4.028;2023-02-18T16:45:55;11.80;99.90
21244;DHT22;10780;50.942;4.028;2023-02-18T16:48:35;11.70;99.90
21244;DHT22;10780;50.942;4.028;2023-02-18T16:51:04;11.70;99.90
21244;DHT22;10780;50.942;4.028;2023-02-18T16:53:30;11.70;99.90
21244;DHT22;10780;50.942;4.028;2023-02-18T16:55:55;11.70;99.90
21244;DHT22;10780;50.942;4.028;2023-02-18T16:58:21;11.70;99.90
21244;DHT22;10780;50.942;4.028;2023-02-18T17:00:48;11.60;99.90
21244;DHT22;10780;50.942;4.028;2023-02-18T17:03:16;11.60;99.90
21244;DHT22;10780;50.942;4.028;2023-02-18T17:05:42;11.60;99.90
21244;DHT22;10780;50.942;4.028;2023-02-18T17:08:17;11.60;99.90
21244;DHT22;10780;50.942;4.028;2023-02-18T17:10:45;11.60;99.90
21244;DHT22;10780;50.942;4.028;2023-02-18T17:13:19;11.60;99.90
21244;DHT22;10780;50.942;4.028;2023-02-18T17:15:47;11.50;99.90
21244;DHT22;10780;50.942;4.028;2023-02-18T17:18:14;11.60;99.90
21244;DHT22;10780;50.942;4.028;2023-02-18T17:20:39;11.60;99.90
21244;DHT22;10780;50.942;4.028;2023-02-18T17:23:05;11.60;99.90
21244;DHT22;10780;50.942;4.028;2023-02-18T17:25:33;11.60;99.90
21244;DHT22;10780;50.942;4.028;2023-02-18T17:27:59;11.50;99.90
21244;DHT22;10780;50.942;4.028;2023-02-18T17:30:25;11.40;99.90
21244;DHT22;10780;50.942;4.028;2023-02-18T17:32:51;11.40;99.90
21244;DHT22;10780;50.942;4.028;2023-02-18T17:35:19;11.40;99.90
21244;DHT22;10780;50.942;4.028;2023-02-18T17:37:45;11.50;99.90
21244;DHT22;10780;50.942;4.028;2023-02-18T17:40:15;11.50;99.90
21244;DHT22;10780;50.942;4.028;2023-02-18T17:42:41;11.50;99.90
21244;DHT22;10780;50.942;4.028;2023-02-18T17:45:26;11.50;99.90
21244;DHT22;10780;50.942;4.028;2023-02-18T17:47:56;11.50;99.90
21244;DHT22;10780;50.942;4.028;2023-02-18T17:50:23;11.50;99.90
21244;DHT22;10780;50.942;4.028;2023-02-18T17:52:48;11.50;99.90
21244;DHT22;10780;50.942;4.028;2023-02-18T17:55:28;11.50;99.90
21244;DHT22;10780;50.942;4.028;2023-02-18T17:57:53;11.50;99.90
21244;DHT22;10780;50.942;4.028;2023-02-18T18:00:30;11.50;99.90
21244;DHT22;10780;50.942;4.028;2023-02-18T18:02:56;11.50;99.90
21244;DHT22;10780;50.942;4.028;2023-02-18T18:05:25;11.50;99.90
21244;DHT22;10780;50.942;4.028;2023-02-18T18:07:51;11.50;99.90
21244;DHT22;10780;50.942;4.028;2023-02-18T18:10:18;11.50;99.90